Main page
METAR-TAF:

METAR-TAF

Airports :

Casement Aerodrome

Dublin, Ireland

latitude: 53-18-06N, longitude: 6-27-04W, elevation: 97 m

Current weather observation

The report was made 38 minutes ago, at 00:00 UTC
Wind 4 kt from the East
Temperature 10°C
Humidity 87%
Pressure 1024 hPa
Visibility 10 km or more
no clouds below 1500 m and no cumulonimbus

METAR: EIME 240000Z 08004KT CAVOK 10/08 Q1024

Time: 01:38 (00:38 UTC)

Forecast

The report was made 1 hour and 38 minutes ago, at 23:00 UTC
Forecast valid from 24 at 00 UTC to 24 at 09 UTC
Wind 7 kt from the East
Visibility 10 km or more
Few clouds at a height of 3000 ft
Temporary
from 24 at 01 UTC to 24 at 07 UTC
Wind 3 kt from variable directions
Visibility: 4000 m
Scattered clouds at a height of 500 ft
mist
Probability 40% :
Temporary
from 24 at 04 UTC to 24 at 07 UTC
Visibility: 2000 m
Broken clouds at a height of 300 ft

TAF: EIME 232300Z 2400/2409 08007KT 9999 FEW030 TEMPO 2401/2407 VRB03KT 4000 BR SCT005 PROB40 TEMPO 2404/2407 2000 BKN003

Weather observations and forecasts of more than 4000 airports (METAR and TAF reports).

The available stations are represented by yellow and red dots on the map.

Hover mouse over dot to see the name of the station.

Then click to see weather observations and forecasts.

To change the map : click on the green buttons with a black cross to zoom in, on the green button with a dash to zoom out, or on the green arrows for adjacent maps.


METAR-TAF: